createdAt,value
2023-02-09T00:04:43.835Z,89.40
2023-02-09T00:09:43.786Z,89.93
2023-02-09T00:14:43.713Z,90.03
2023-02-09T00:19:43.677Z,90.03
2023-02-09T00:24:43.598Z,90.03
2023-02-09T00:29:43.532Z,90.14
2023-02-09T00:34:43.490Z,90.03
2023-02-09T00:39:43.414Z,90.03
2023-02-09T00:44:43.352Z,90.03
2023-02-09T00:49:43.296Z,90.08
2023-02-09T00:54:43.239Z,90.25
2023-02-09T00:59:43.506Z,90.28
2023-02-09T01:04:43.148Z,90.28
2023-02-09T01:09:43.046Z,90.70
2023-02-09T01:14:43.777Z,90.81
2023-02-09T01:19:42.924Z,90.70
2023-02-09T01:24:42.867Z,90.81
2023-02-09T01:29:42.814Z,90.70
2023-02-09T01:34:42.746Z,90.54
2023-02-09T01:39:42.694Z,90.26
2023-02-09T01:44:42.645Z,90.05
2023-02-09T01:49:42.585Z,90.37
2023-02-09T01:54:42.515Z,90.58
2023-02-09T01:59:42.470Z,90.69
2023-02-09T02:04:42.396Z,91.00
2023-02-09T02:09:42.338Z,91.14
2023-02-09T02:14:42.278Z,91.25
2023-02-09T02:19:42.223Z,91.14
2023-02-09T02:24:42.149Z,91.19
2023-02-09T02:29:42.125Z,91.30
2023-02-09T02:34:42.050Z,91.97
2023-02-09T02:39:41.959Z,92.29
2023-02-09T02:44:41.918Z,92.07
2023-02-09T02:49:41.857Z,92.29
2023-02-09T02:54:41.790Z,92.71
2023-02-09T02:59:41.744Z,92.71
2023-02-09T03:04:41.672Z,92.60
2023-02-09T03:09:41.613Z,92.86
2023-02-09T03:14:41.581Z,93.07
2023-02-09T03:19:41.505Z,93.18
2023-02-09T03:24:41.434Z,93.32
2023-02-09T03:29:41.381Z,93.43
2023-02-09T03:34:41.317Z,93.11
2023-02-09T03:39:41.261Z,93.01
2023-02-09T03:44:41.209Z,93.05
2023-02-09T03:49:41.165Z,93.57
2023-02-09T03:54:41.076Z,94.42
2023-02-09T03:59:41.030Z,94.36
2023-02-09T04:04:40.985Z,94.68
2023-02-09T04:09:40.904Z,95.36
2023-02-09T04:14:40.858Z,95.84
2023-02-09T04:19:40.783Z,95.78
2023-02-09T04:24:40.721Z,96.52
2023-02-09T04:29:40.667Z,96.42
2023-02-09T04:34:40.596Z,96.52
2023-02-09T04:39:40.542Z,96.42
2023-02-09T04:44:40.495Z,96.25
2023-02-09T04:49:40.433Z,95.82
2023-02-09T04:54:40.375Z,96.03
2023-02-09T04:59:40.313Z,95.72
2023-02-09T05:04:40.298Z,96.29
2023-02-09T05:09:40.200Z,96.29
2023-02-09T05:14:40.133Z,96.08
2023-02-09T05:19:40.080Z,96.50
2023-02-09T05:24:40.019Z,97.18
2023-02-09T05:29:39.997Z,97.08
2023-02-09T05:34:39.901Z,97.18
2023-02-09T05:39:39.855Z,96.91
2023-02-09T05:44:39.795Z,96.80
2023-02-09T05:49:39.731Z,97.16
2023-02-09T05:54:39.680Z,97.38
2023-02-09T05:59:39.609Z,97.20
2023-02-09T06:04:39.576Z,97.20
2023-02-09T06:09:39.496Z,98.16
2023-02-09T06:14:39.426Z,98.44
2023-02-09T06:19:39.375Z,98.44
2023-02-09T06:24:39.332Z,98.12
2023-02-09T06:29:39.271Z,97.80
2023-02-09T06:34:39.202Z,98.01
2023-02-09T06:39:39.177Z,97.59
2023-02-09T06:44:39.087Z,97.10
2023-02-09T06:49:39.057Z,97.10
2023-02-09T06:54:38.969Z,96.83
2023-02-09T06:59:38.926Z,96.83
2023-02-09T07:04:38.847Z,97.10
2023-02-09T07:09:38.806Z,97.59
2023-02-09T07:14:38.725Z,97.54
2023-02-09T07:19:38.677Z,97.35
2023-02-09T07:24:38.615Z,96.78
2023-02-09T07:29:38.559Z,95.67
2023-02-09T07:34:38.501Z,95.00
2023-02-09T07:39:38.438Z,94.32
2023-02-09T07:44:38.378Z,93.74
2023-02-09T07:49:38.329Z,92.96
2023-02-09T07:54:38.261Z,92.92
2023-02-09T07:59:38.224Z,92.20
2023-02-09T08:04:38.185Z,91.95
2023-02-09T08:09:38.083Z,91.06
2023-02-09T08:14:38.015Z,91.51
2023-02-09T08:19:37.957Z,89.89
2023-02-09T08:24:37.912Z,88.79
2023-02-09T08:29:37.853Z,88.75
2023-02-09T08:34:37.777Z,88.12
2023-02-09T08:39:37.726Z,88.08
2023-02-09T08:44:37.669Z,87.62
2023-02-09T08:49:37.610Z,87.58
2023-02-09T08:54:37.553Z,85.65
2023-02-09T08:59:37.487Z,85.75
2023-02-09T09:04:37.418Z,85.65
2023-02-09T09:09:37.361Z,85.50
2023-02-09T09:14:37.299Z,84.45
2023-02-09T09:19:37.248Z,84.00
2023-02-09T09:24:37.178Z,82.81
2023-02-09T09:29:37.131Z,82.07
2023-02-09T09:34:37.064Z,81.40
2023-02-09T09:39:37.016Z,80.91
2023-02-09T09:44:36.938Z,80.28
2023-02-09T09:49:36.887Z,79.58
2023-02-09T09:54:36.817Z,78.22
2023-02-09T09:59:36.756Z,76.93
2023-02-09T10:04:36.768Z,76.20
2023-02-09T10:09:36.636Z,76.37
2023-02-09T10:14:36.574Z,76.30
2023-02-09T10:19:36.523Z,73.79
2023-02-09T10:24:36.456Z,71.84
2023-02-09T10:29:36.396Z,70.73
2023-02-09T10:34:36.340Z,68.69
2023-02-09T10:39:36.269Z,67.61
2023-02-09T10:44:36.219Z,68.28
2023-02-09T10:49:36.154Z,65.34
2023-02-09T10:54:36.078Z,64.92
2023-02-09T10:59:36.020Z,65.34
2023-02-09T11:04:36.005Z,63.98
2023-02-09T11:09:35.905Z,64.32
2023-02-09T11:14:35.834Z,65.10
2023-02-09T11:19:35.775Z,63.64
2023-02-09T11:24:35.726Z,63.41
2023-02-09T11:29:35.663Z,62.16
2023-02-09T11:34:35.593Z,61.64
2023-02-09T11:39:37.469Z,60.50
2023-02-09T11:44:35.481Z,60.47
2023-02-09T11:49:35.414Z,59.06
2023-02-09T11:54:35.353Z,58.62
2023-02-09T11:59:35.294Z,58.59
2023-02-09T12:04:35.222Z,58.98
2023-02-09T12:09:35.174Z,58.57
2023-02-09T12:14:35.093Z,58.85
2023-02-09T12:19:35.032Z,58.41
2023-02-09T12:24:34.959Z,58.00
2023-02-09T12:29:34.945Z,58.20
2023-02-09T12:34:34.890Z,59.24
2023-02-09T12:39:34.782Z,59.55
2023-02-09T12:44:34.773Z,60.38
2023-02-09T12:49:34.816Z,60.69
2023-02-09T12:54:34.591Z,60.04
2023-02-09T12:59:34.527Z,60.79
2023-02-09T13:04:34.477Z,61.69
2023-02-09T13:09:34.429Z,61.36
2023-02-09T13:14:34.345Z,60.01
2023-02-09T13:19:47.124Z,60.77
2023-02-09T13:24:35.224Z,61.67
2023-02-09T13:29:34.157Z,60.94
2023-02-09T13:34:34.126Z,61.25
2023-02-09T13:39:34.196Z,60.74
2023-02-09T13:44:33.974Z,61.21
2023-02-09T13:49:33.930Z,62.04
2023-02-09T13:54:33.856Z,62.89
2023-02-09T13:59:33.841Z,62.87
2023-02-09T14:04:33.737Z,62.55
2023-02-09T14:09:33.698Z,63.38
2023-02-09T14:14:33.588Z,62.76
2023-02-09T14:19:33.617Z,63.28
2023-02-09T14:24:33.522Z,63.38
2023-02-09T14:29:33.420Z,63.46
2023-02-09T14:34:33.370Z,63.97
2023-02-09T14:39:33.282Z,64.62
2023-02-09T14:44:33.220Z,64.42
2023-02-09T14:49:33.172Z,64.80
2023-02-09T14:54:33.106Z,64.70
2023-02-09T14:59:33.042Z,64.73
2023-02-09T15:04:32.974Z,65.35
2023-02-09T15:09:32.914Z,65.48
2023-02-09T15:14:32.855Z,66.03
2023-02-09T15:19:32.805Z,67.20
2023-02-09T15:24:32.733Z,67.30
2023-02-09T15:29:32.671Z,67.61
2023-02-09T15:34:32.600Z,68.65
2023-02-09T15:39:32.549Z,69.17
2023-02-09T15:44:32.487Z,68.86
2023-02-09T15:49:32.419Z,68.76
2023-02-09T15:54:32.392Z,69.48
2023-02-09T15:59:32.292Z,70.04
2023-02-09T16:04:32.237Z,69.96
2023-02-09T16:09:32.170Z,70.41
2023-02-09T16:14:32.123Z,71.48
2023-02-09T16:19:32.045Z,71.83
2023-02-09T16:24:31.970Z,72.59
2023-02-09T16:29:31.927Z,73.49
2023-02-09T16:34:31.858Z,74.56
2023-02-09T16:39:31.818Z,75.01
2023-02-09T16:44:31.736Z,75.78
2023-02-09T16:49:31.686Z,77.51
2023-02-09T16:54:31.615Z,79.36
2023-02-09T16:59:31.564Z,81.11
2023-02-09T17:04:31.491Z,82.54
2023-02-09T17:09:31.444Z,83.52
2023-02-09T17:14:31.354Z,83.83
2023-02-09T17:19:47.093Z,83.98
2023-02-09T17:24:32.236Z,84.29
2023-02-09T17:29:31.181Z,84.61
2023-02-09T17:36:45.552Z,84.96
2023-02-09T17:41:36.686Z,85.94
2023-02-09T17:46:36.722Z,86.92
2023-02-09T17:51:36.540Z,87.24
2023-02-09T17:56:36.473Z,87.66
2023-02-09T18:01:36.441Z,88.01
2023-02-09T18:06:36.401Z,88.57
2023-02-09T18:11:36.297Z,88.57
2023-02-09T18:16:36.272Z,88.89
2023-02-09T18:21:36.193Z,88.68
2023-02-09T18:26:36.123Z,88.62
2023-02-09T18:31:37.466Z,89.14
2023-02-09T18:36:36.018Z,89.71
2023-02-09T18:41:35.981Z,90.66
2023-02-09T18:46:35.913Z,91.01
2023-02-09T18:51:35.912Z,91.33
2023-02-09T18:56:35.765Z,91.53
2023-02-09T19:01:35.779Z,91.36
2023-02-09T19:06:35.681Z,91.47
2023-02-09T19:11:35.599Z,91.47
2023-02-09T19:16:35.575Z,92.67
2023-02-09T19:21:35.508Z,93.57
2023-02-09T19:26:35.431Z,93.47
2023-02-09T19:31:35.484Z,93.57
2023-02-09T19:36:35.297Z,93.57
2023-02-09T19:41:35.339Z,94.10
2023-02-09T19:46:35.296Z,94.25
2023-02-09T19:51:35.168Z,94.78
2023-02-09T19:56:35.060Z,94.78
2023-02-09T20:01:35.069Z,95.20
2023-02-09T20:06:34.928Z,94.71
2023-02-09T20:11:34.916Z,94.65
2023-02-09T20:16:34.866Z,94.80
2023-02-09T20:21:34.782Z,95.11
2023-02-09T20:26:34.701Z,95.15
2023-02-09T20:31:34.748Z,95.41
2023-02-09T20:36:34.604Z,95.41
2023-02-09T20:41:34.546Z,95.67
2023-02-09T20:46:34.479Z,96.51
2023-02-09T20:51:34.414Z,96.97
2023-02-09T20:56:34.359Z,96.77
2023-02-09T21:01:34.325Z,97.39
2023-02-09T21:06:34.242Z,97.81
2023-02-09T21:11:34.275Z,97.81
2023-02-09T21:16:34.159Z,97.97
2023-02-09T21:21:34.096Z,99.13
2023-02-09T21:26:33.985Z,99.19
2023-02-09T21:31:33.971Z,99.40
2023-02-09T21:36:33.896Z,99.61
2023-02-09T21:41:33.847Z,99.61
2023-02-09T21:46:33.806Z,99.25
2023-02-09T21:51:33.714Z,99.25
2023-02-09T21:56:33.623Z,99.46
2023-02-09T22:01:33.640Z,98.99
2023-02-09T22:06:33.587Z,98.47
2023-02-09T22:11:33.531Z,98.00
2023-02-09T22:16:33.438Z,97.73
2023-02-09T22:21:33.359Z,97.31
2023-02-09T22:26:33.325Z,96.72
2023-02-09T22:31:33.266Z,96.93
2023-02-09T22:36:33.165Z,97.19
2023-02-09T22:41:33.129Z,96.97
2023-02-09T22:46:33.188Z,97.08
2023-02-09T22:51:33.032Z,97.61
2023-02-09T22:56:32.941Z,98.09
2023-02-09T23:01:33.003Z,97.99
2023-02-09T23:06:32.941Z,97.92
2023-02-09T23:11:32.859Z,97.71
2023-02-09T23:16:32.739Z,97.61
2023-02-09T23:21:32.685Z,97.65
2023-02-09T23:26:32.640Z,98.12
2023-02-09T23:31:32.644Z,97.91
2023-02-09T23:36:32.487Z,97.85
2023-02-09T23:41:32.465Z,98.10
2023-02-09T23:46:32.512Z,98.42
2023-02-09T23:51:32.372Z,98.52
2023-02-09T23:56:32.257Z,98.46
